MSC Gina — 3FLY9 — position and weather

sailwx.info

Track history (hours):
 
Tides and Currents Weather Stations Pressure Air Temp Water Temp Dewpoint Dewpoint Depression Visibility Wind Speed Wind Dir Waves Ship Positions

MSC Gina

Last reported at 2015-Aug-03 11:04 UTC. Time now 2015-Aug-04 15:57 UTC.
Position N 38°37' W 011°22'.

Length 259 m; draft 9 m.

Type: Ship (hazmat cat A). MMSI: 357542000.

Date/timePositionNaut miles runAvg speedWind from/ knotsBaromVisibWave heightAir tempDewpointWater temp
2015-Aug-03 11:04N 38°37' W 011°22'916.4
2015-Aug-03 10:30N 38°34' W 011°11'1516.1
2015-Aug-03 09:33N 38°28' W 010°54'1716.9
2015-Aug-03 08:33N 38°21' W 010°34'1818.2
2015-Aug-03 07:34N 38°14' W 010°13'1919.0
2015-Aug-03 06:33N 38°07' W 009°50'1919.0
2015-Aug-03 05:33N 38°01' W 009°27'1919.3
2015-Aug-03 04:33N 37°54' W 009°04'1010.5
2015-Aug-03 03:33N 37°56' W 008°51'0 0.0
2015-Aug-03 02:33N 37°56' W 008°51'0 0.0
2015-Aug-03 01:33N 37°56' W 008°51'0 0.0
2015-Aug-03 00:33N 37°56' W 008°51'0 0.0
2015-Aug-02 23:33N 37°56' W 008°51'0 0.0
2015-Aug-02 22:33N 37°56' W 008°51'0 0.0
2015-Aug-02 21:33N 37°56' W 008°51'0 0.0
2015-Aug-02 20:33N 37°56' W 008°51'0 0.0
2015-Aug-02 19:33N 37°56' W 008°51'0 0.0
2015-Aug-02 18:33N 37°56' W 008°51'1 1.3
2015-Aug-02 17:33N 37°55' W 008°50'1313.2
2015-Aug-02 16:33N 37°43' W 008°57'1919.1
2015-Aug-02 15:34N 37°25' W 009°07'1919.2
2015-Aug-02 14:33N 37°08' W 009°17'1817.9
2015-Aug-02 13:34N 36°50' W 009°17'39718.1
2015-Aug-01 15:33N 37°16' W 000°60'2020.6
2015-Aug-01 14:33N 37°29' W 000°41'2020.4
2015-Aug-01 13:33N 37°45' W 000°24'2020.4
2015-Aug-01 12:33N 38°02' W 000°10'10220.4
2015-Aug-01 07:31N 39°19' E 001°16'2020.6
2015-Aug-01 06:33N 39°32' E 001°35'2120.6
2015-Aug-01 05:33N 39°46' E 001°56'2120.9
2015-Aug-01 04:33N 40°00' E 002°16'2120.7
2015-Aug-01 03:33N 40°14' E 002°36'2120.5
2015-Aug-01 02:33N 40°27' E 002°57'2020.5
2015-Aug-01 01:33N 40°40' E 003°17'2020.2
2015-Aug-01 00:33N 40°54' E 003°37'6220.4
2015-Jul-31 21:31N 41°34' E 004°39'1920.2
2015-Jul-31 20:33N 41°47' E 004°59'2120.2
2015-Jul-31 19:30N 42°01' E 005°20'1919.9
2015-Jul-31 18:33N 42°13' E 005°39'2019.4
2015-Jul-31 17:33N 42°26' E 005°59'2220.1
2015-Jul-31 16:26N 42°41' E 006°22'1820.7
2015-Jul-31 15:34N 42°53' E 006°41'2220.6
2015-Jul-31 14:31N 43°07' E 007°03'4420.2
2015-Jul-31 12:20N 43°36' E 007°49'1620.9
2015-Jul-31 11:34N 43°47' E 008°05'2120.8
2015-Jul-31 10:34N 44°03' E 008°25'2120.7
2015-Jul-31 09:34N 44°20' E 008°40'7 7.2
2015-Jul-31 08:33N 44°25' E 008°47'0 0.0
2015-Jul-31 07:33N 44°25' E 008°47'0 0.0
2015-Jul-31 06:33N 44°25' E 008°47'0 0.0
2015-Jul-31 05:33N 44°25' E 008°47'0 0.0
2015-Jul-31 04:33N 44°25' E 008°47'0 0.0
2015-Jul-31 03:33N 44°25' E 008°47'0 0.0
2015-Jul-31 02:33N 44°25' E 008°47'0 0.0
2015-Jul-31 01:33N 44°25' E 008°47'0 0.0
2015-Jul-31 00:33N 44°25' E 008°47'0 0.0
2015-Jul-30 23:33N 44°25' E 008°47'0 0.0
2015-Jul-30 22:33N 44°25' E 008°47'0 0.0
2015-Jul-30 21:33N 44°25' E 008°47'0 0.0
2015-Jul-30 20:33N 44°25' E 008°47'0 0.0
2015-Jul-30 19:33N 44°25' E 008°47'0 0.0
2015-Jul-30 18:33N 44°25' E 008°47'0 0.0
2015-Jul-30 17:33N 44°25' E 008°47'0 0.0
2015-Jul-30 16:33N 44°25' E 008°47'0 0.0
2015-Jul-30 15:33N 44°25' E 008°47'0 0.0
2015-Jul-30 14:33N 44°25' E 008°47'0 0.0
2015-Jul-30 13:33N 44°25' E 008°47'0 0.0
2015-Jul-30 12:33N 44°25' E 008°47'5 5.2
2015-Jul-30 11:33N 44°20' E 008°46'2120.7
2015-Jul-30 10:33N 44°06' E 009°06'2121.0
2015-Jul-30 09:33N 43°50' E 009°26'2020.0
2015-Jul-30 08:34N 43°36' E 009°46'1818.0
2015-Jul-30 07:34N 43°31' E 010°10'7 7.1
2015-Jul-30 06:33N 43°34' E 010°18'0 0.0
2015-Jul-30 05:33N 43°34' E 010°18'0 0.0
2015-Jul-30 04:33N 43°34' E 010°18'0 0.0
2015-Jul-30 03:33N 43°34' E 010°18'0 0.0
2015-Jul-30 02:33N 43°34' E 010°18'0 0.0
2015-Jul-30 01:33N 43°34' E 010°18'0 0.0
2015-Jul-30 00:33N 43°34' E 010°18'0 0.0
2015-Jul-29 23:33N 43°34' E 010°18'0 0.0
2015-Jul-29 22:33N 43°34' E 010°18'0 0.0
2015-Jul-29 21:33N 43°34' E 010°18'0 0.0
2015-Jul-29 20:33N 43°34' E 010°18'0 0.0
2015-Jul-29 19:33N 43°34' E 010°18'0 0.0
2015-Jul-29 18:33N 43°34' E 010°18'0 0.0
2015-Jul-29 17:33N 43°34' E 010°18'0 0.0
2015-Jul-29 16:33N 43°34' E 010°18'2 2.4
2015-Jul-29 15:33N 43°32' E 010°17'1413.6
2015-Jul-29 14:33N 43°23' E 010°04'2222.0
2015-Jul-29 13:33N 43°08' E 009°42'2019.9
2015-Jul-29 12:32N 42°47' E 009°44'2121.1
2015-Jul-29 11:33N 42°28' E 009°54'8019.8
2015-Jul-29 07:31N 41°33' E 011°12'9919.6
2015-Jul-29 02:28N 40°29' E 012°53'14420.4
2015-Jul-28 19:24N 38°58' E 015°18'2220.2
2015-Jul-28 18:20N 38°41' E 015°36'1620.1
2015-Jul-28 17:33N 38°30' E 015°49'5 4.9
2015-Jul-28 16:33N 38°27' E 015°54'0 0.0
2015-Jul-28 15:33N 38°27' E 015°54'0 0.0
2015-Jul-28 14:30N 38°27' E 015°54'0 0.0
2015-Jul-28 13:33N 38°27' E 015°54'0 0.0
2015-Jul-28 12:30N 38°27' E 015°54'0 0.0
2015-Jul-28 11:33N 38°27' E 015°54'0 0.0
2015-Jul-28 10:33N 38°27' E 015°54'0 0.0
2015-Jul-28 09:33N 38°27' E 015°54'0 0.0
2015-Jul-28 08:27N 38°27' E 015°54'0 0.0
2015-Jul-28 07:24N 38°27' E 015°54'0 0.0
2015-Jul-28 06:33N 38°27' E 015°54'0 0.0
2015-Jul-28 05:30N 38°27' E 015°54'0 0.0
2015-Jul-28 04:33N 38°27' E 015°54'0 0.0
2015-Jul-28 03:30N 38°27' E 015°54'0 0.0
2015-Jul-28 02:33N 38°27' E 015°54'0 0.0
2015-Jul-28 01:18N 38°27' E 015°54'0 0.0
2015-Jul-28 00:33N 38°27' E 015°54'0 0.0
2015-Jul-27 23:33N 38°27' E 015°54'0 0.0
2015-Jul-27 22:33N 38°27' E 015°54'0 0.0
2015-Jul-27 21:33N 38°27' E 015°54'0 0.0
2015-Jul-27 20:30N 38°27' E 015°54'0 0.0
2015-Jul-27 19:30N 38°27' E 015°54'0 0.0
2015-Jul-27 18:27N 38°27' E 015°54'0 0.0
2015-Jul-27 17:34N 38°27' E 015°54'6 5.5
2015-Jul-27 16:33N 38°28' E 015°47'1 1.4
2015-Jul-27 15:33N 38°28' E 015°46'0 0.1
2015-Jul-27 14:33N 38°28' E 015°46'0 0.1
2015-Jul-27 13:33N 38°28' E 015°46'0 0.0
2015-Jul-27 12:34N 38°28' E 015°46'0 0.1
2015-Jul-27 11:34N 38°28' E 015°46'0 0.1
2015-Jul-27 10:34N 38°28' E 015°46'0 0.2
2015-Jul-27 09:34N 38°28' E 015°46'0 0.0
2015-Jul-27 08:34N 38°28' E 015°46'0 0.2
2015-Jul-27 07:33N 38°28' E 015°46'0 0.2
2015-Jul-27 06:34N 38°28' E 015°46'0 0.1
2015-Jul-27 05:34N 38°28' E 015°46'5 4.9
2015-Jul-27 04:33N 38°25' E 015°41'2020.0
2015-Jul-27 03:33N 38°21' E 015°16'1919.4
2015-Jul-27 02:33N 38°20' E 014°51'2019.9
2015-Jul-27 01:32N 38°20' E 014°25'2419.8
2015-Jul-27 00:21N 38°20' E 013°55'1619.7
2015-Jul-26 23:33N 38°20' E 013°35'1919.5
2015-Jul-26 22:33N 38°21' E 013°11'1919.3
2015-Jul-26 21:33N 38°19' E 012°46'8619.7
2015-Jul-26 17:11N 38°07' E 010°57'6019.7
2015-Jul-26 14:08N 37°57' E 009°42'1219.7
2015-Jul-26 13:33N 37°56' E 009°28'261 9.2
2015-Jul-25 09:04N 37°15' E 004°02'610.5
2015-Jul-25 08:31N 37°11' E 003°56'1717.0
2015-Jul-25 07:33N 37°09' E 003°36'2416.8
2015-Jul-25 06:08N 37°05' E 003°06'1016.9
2015-Jul-25 05:33N 37°03' E 002°54'1716.9
2015-Jul-25 04:33N 37°00' E 002°33'1716.8
2015-Jul-25 03:33N 36°57' E 002°13'1716.8
2015-Jul-25 02:33N 36°55' E 001°52'1716.8
2015-Jul-25 01:33N 36°52' E 001°31'1716.7
2015-Jul-25 00:33N 36°49' E 001°11'1817.5
2015-Jul-24 23:33N 36°46' E 000°49'1716.9
2015-Jul-24 22:33N 36°43' E 000°29'1717.1
2015-Jul-24 21:33N 36°40' E 000°08'1716.9
2015-Jul-24 20:33N 36°38' W 000°13'1816.8
2015-Jul-24 19:27N 36°35' W 000°36'1516.6
2015-Jul-24 18:33N 36°32' W 000°54'1716.6
2015-Jul-24 17:33N 36°29' W 001°14'1716.8
2015-Jul-24 16:34N 36°27' W 001°35'1716.6
2015-Jul-24 15:34N 36°24' W 001°55'1816.8
2015-Jul-24 14:29N 36°21' W 002°17'1617.0
2015-Jul-24 13:33N 36°18' W 002°37'2516.4
2015-Jul-24 12:03N 36°15' W 003°07'1316.5
2015-Jul-24 11:15N 36°13' W 003°23'  
Track history (hours):
 
Tides and Currents Weather Stations Pressure Air Temp Water Temp Dewpoint Dewpoint Depression Visibility Wind Speed Wind Dir Waves Ship Positions

MSC Gina

Last reported at 2015-Aug-03 11:04 UTC. Time now 2015-Aug-04 15:57 UTC.
Position N 38°37' W 011°22'.

Length 259 m; draft 9 m.

Type: Ship (hazmat cat A). MMSI: 357542000.

Date/timePositionNaut miles runAvg speedWind from/ knotsBaromVisibWave heightAir tempDewpointWater temp
2015-Aug-03 11:04N 38°37' W 011°22'916.4
2015-Aug-03 10:30N 38°34' W 011°11'1516.1
2015-Aug-03 09:33N 38°28' W 010°54'1716.9
2015-Aug-03 08:33N 38°21' W 010°34'1818.2
2015-Aug-03 07:34N 38°14' W 010°13'1919.0
2015-Aug-03 06:33N 38°07' W 009°50'1919.0
2015-Aug-03 05:33N 38°01' W 009°27'1919.3
2015-Aug-03 04:33N 37°54' W 009°04'1010.5
2015-Aug-03 03:33N 37°56' W 008°51'0 0.0
2015-Aug-03 02:33N 37°56' W 008°51'0 0.0
2015-Aug-03 01:33N 37°56' W 008°51'0 0.0
2015-Aug-03 00:33N 37°56' W 008°51'0 0.0
2015-Aug-02 23:33N 37°56' W 008°51'0 0.0
2015-Aug-02 22:33N 37°56' W 008°51'0 0.0
2015-Aug-02 21:33N 37°56' W 008°51'0 0.0
2015-Aug-02 20:33N 37°56' W 008°51'0 0.0
2015-Aug-02 19:33N 37°56' W 008°51'0 0.0
2015-Aug-02 18:33N 37°56' W 008°51'1 1.3
2015-Aug-02 17:33N 37°55' W 008°50'1313.2
2015-Aug-02 16:33N 37°43' W 008°57'1919.1
2015-Aug-02 15:34N 37°25' W 009°07'1919.2
2015-Aug-02 14:33N 37°08' W 009°17'1817.9
2015-Aug-02 13:34N 36°50' W 009°17'39718.1
2015-Aug-01 15:33N 37°16' W 000°60'2020.6
2015-Aug-01 14:33N 37°29' W 000°41'2020.4
2015-Aug-01 13:33N 37°45' W 000°24'2020.4
2015-Aug-01 12:33N 38°02' W 000°10'10220.4
2015-Aug-01 07:31N 39°19' E 001°16'2020.6
2015-Aug-01 06:33N 39°32' E 001°35'2120.6
2015-Aug-01 05:33N 39°46' E 001°56'2120.9
2015-Aug-01 04:33N 40°00' E 002°16'2120.7
2015-Aug-01 03:33N 40°14' E 002°36'2120.5
2015-Aug-01 02:33N 40°27' E 002°57'2020.5
2015-Aug-01 01:33N 40°40' E 003°17'2020.2
2015-Aug-01 00:33N 40°54' E 003°37'6220.4
2015-Jul-31 21:31N 41°34' E 004°39'1920.2
2015-Jul-31 20:33N 41°47' E 004°59'2120.2
2015-Jul-31 19:30N 42°01' E 005°20'1919.9
2015-Jul-31 18:33N 42°13' E 005°39'2019.4
2015-Jul-31 17:33N 42°26' E 005°59'2220.1
2015-Jul-31 16:26N 42°41' E 006°22'1820.7
2015-Jul-31 15:34N 42°53' E 006°41'2220.6
2015-Jul-31 14:31N 43°07' E 007°03'4420.2
2015-Jul-31 12:20N 43°36' E 007°49'1620.9
2015-Jul-31 11:34N 43°47' E 008°05'2120.8
2015-Jul-31 10:34N 44°03' E 008°25'2120.7
2015-Jul-31 09:34N 44°20' E 008°40'7 7.2
2015-Jul-31 08:33N 44°25' E 008°47'0 0.0
2015-Jul-31 07:33N 44°25' E 008°47'0 0.0
2015-Jul-31 06:33N 44°25' E 008°47'0 0.0
2015-Jul-31 05:33N 44°25' E 008°47'0 0.0
2015-Jul-31 04:33N 44°25' E 008°47'0 0.0
2015-Jul-31 03:33N 44°25' E 008°47'0 0.0
2015-Jul-31 02:33N 44°25' E 008°47'0 0.0
2015-Jul-31 01:33N 44°25' E 008°47'0 0.0
2015-Jul-31 00:33N 44°25' E 008°47'0 0.0
2015-Jul-30 23:33N 44°25' E 008°47'0 0.0
2015-Jul-30 22:33N 44°25' E 008°47'0 0.0
2015-Jul-30 21:33N 44°25' E 008°47'0 0.0
2015-Jul-30 20:33N 44°25' E 008°47'0 0.0
2015-Jul-30 19:33N 44°25' E 008°47'0 0.0
2015-Jul-30 18:33N 44°25' E 008°47'0 0.0
2015-Jul-30 17:33N 44°25' E 008°47'0 0.0
2015-Jul-30 16:33N 44°25' E 008°47'0 0.0
2015-Jul-30 15:33N 44°25' E 008°47'0 0.0
2015-Jul-30 14:33N 44°25' E 008°47'0 0.0
2015-Jul-30 13:33N 44°25' E 008°47'0 0.0
2015-Jul-30 12:33N 44°25' E 008°47'5 5.2
2015-Jul-30 11:33N 44°20' E 008°46'2120.7
2015-Jul-30 10:33N 44°06' E 009°06'2121.0
2015-Jul-30 09:33N 43°50' E 009°26'2020.0
2015-Jul-30 08:34N 43°36' E 009°46'1818.0
2015-Jul-30 07:34N 43°31' E 010°10'7 7.1
2015-Jul-30 06:33N 43°34' E 010°18'0 0.0
2015-Jul-30 05:33N 43°34' E 010°18'0 0.0
2015-Jul-30 04:33N 43°34' E 010°18'0 0.0
2015-Jul-30 03:33N 43°34' E 010°18'0 0.0
2015-Jul-30 02:33N 43°34' E 010°18'0 0.0
2015-Jul-30 01:33N 43°34' E 010°18'0 0.0
2015-Jul-30 00:33N 43°34' E 010°18'0 0.0
2015-Jul-29 23:33N 43°34' E 010°18'0 0.0
2015-Jul-29 22:33N 43°34' E 010°18'0 0.0
2015-Jul-29 21:33N 43°34' E 010°18'0 0.0
2015-Jul-29 20:33N 43°34' E 010°18'0 0.0
2015-Jul-29 19:33N 43°34' E 010°18'0 0.0
2015-Jul-29 18:33N 43°34' E 010°18'0 0.0
2015-Jul-29 17:33N 43°34' E 010°18'0 0.0
2015-Jul-29 16:33N 43°34' E 010°18'2 2.4
2015-Jul-29 15:33N 43°32' E 010°17'1413.6
2015-Jul-29 14:33N 43°23' E 010°04'2222.0
2015-Jul-29 13:33N 43°08' E 009°42'2019.9
2015-Jul-29 12:32N 42°47' E 009°44'2121.1
2015-Jul-29 11:33N 42°28' E 009°54'8019.8
2015-Jul-29 07:31N 41°33' E 011°12'9919.6
2015-Jul-29 02:28N 40°29' E 012°53'14420.4
2015-Jul-28 19:24N 38°58' E 015°18'2220.2
2015-Jul-28 18:20N 38°41' E 015°36'1620.1
2015-Jul-28 17:33N 38°30' E 015°49'5 4.9
2015-Jul-28 16:33N 38°27' E 015°54'0 0.0
2015-Jul-28 15:33N 38°27' E 015°54'0 0.0
2015-Jul-28 14:30N 38°27' E 015°54'0 0.0
2015-Jul-28 13:33N 38°27' E 015°54'0 0.0
2015-Jul-28 12:30N 38°27' E 015°54'0 0.0
2015-Jul-28 11:33N 38°27' E 015°54'0 0.0
2015-Jul-28 10:33N 38°27' E 015°54'0 0.0
2015-Jul-28 09:33N 38°27' E 015°54'0 0.0
2015-Jul-28 08:27N 38°27' E 015°54'0 0.0
2015-Jul-28 07:24N 38°27' E 015°54'0 0.0
2015-Jul-28 06:33N 38°27' E 015°54'0 0.0
2015-Jul-28 05:30N 38°27' E 015°54'0 0.0
2015-Jul-28 04:33N 38°27' E 015°54'0 0.0
2015-Jul-28 03:30N 38°27' E 015°54'0 0.0
2015-Jul-28 02:33N 38°27' E 015°54'0 0.0
2015-Jul-28 01:18N 38°27' E 015°54'0 0.0
2015-Jul-28 00:33N 38°27' E 015°54'0 0.0
2015-Jul-27 23:33N 38°27' E 015°54'0 0.0
2015-Jul-27 22:33N 38°27' E 015°54'0 0.0
2015-Jul-27 21:33N 38°27' E 015°54'0 0.0
2015-Jul-27 20:30N 38°27' E 015°54'0 0.0
2015-Jul-27 19:30N 38°27' E 015°54'0 0.0
2015-Jul-27 18:27N 38°27' E 015°54'0 0.0
2015-Jul-27 17:34N 38°27' E 015°54'6 5.5
2015-Jul-27 16:33N 38°28' E 015°47'1 1.4
2015-Jul-27 15:33N 38°28' E 015°46'0 0.1
2015-Jul-27 14:33N 38°28' E 015°46'0 0.1
2015-Jul-27 13:33N 38°28' E 015°46'0 0.0
2015-Jul-27 12:34N 38°28' E 015°46'0 0.1
2015-Jul-27 11:34N 38°28' E 015°46'0 0.1
2015-Jul-27 10:34N 38°28' E 015°46'0 0.2
2015-Jul-27 09:34N 38°28' E 015°46'0 0.0
2015-Jul-27 08:34N 38°28' E 015°46'0 0.2
2015-Jul-27 07:33N 38°28' E 015°46'0 0.2
2015-Jul-27 06:34N 38°28' E 015°46'0 0.1
2015-Jul-27 05:34N 38°28' E 015°46'5 4.9
2015-Jul-27 04:33N 38°25' E 015°41'2020.0
2015-Jul-27 03:33N 38°21' E 015°16'1919.4
2015-Jul-27 02:33N 38°20' E 014°51'2019.9
2015-Jul-27 01:32N 38°20' E 014°25'2419.8
2015-Jul-27 00:21N 38°20' E 013°55'1619.7
2015-Jul-26 23:33N 38°20' E 013°35'1919.5
2015-Jul-26 22:33N 38°21' E 013°11'1919.3
2015-Jul-26 21:33N 38°19' E 012°46'8619.7
2015-Jul-26 17:11N 38°07' E 010°57'6019.7
2015-Jul-26 14:08N 37°57' E 009°42'1219.7
2015-Jul-26 13:33N 37°56' E 009°28'261 9.2
2015-Jul-25 09:04N 37°15' E 004°02'610.5
2015-Jul-25 08:31N 37°11' E 003°56'1717.0
2015-Jul-25 07:33N 37°09' E 003°36'2416.8
2015-Jul-25 06:08N 37°05' E 003°06'1016.9
2015-Jul-25 05:33N 37°03' E 002°54'1716.9
2015-Jul-25 04:33N 37°00' E 002°33'1716.8
2015-Jul-25 03:33N 36°57' E 002°13'1716.8
2015-Jul-25 02:33N 36°55' E 001°52'1716.8
2015-Jul-25 01:33N 36°52' E 001°31'1716.7
2015-Jul-25 00:33N 36°49' E 001°11'1817.5
2015-Jul-24 23:33N 36°46' E 000°49'1716.9
2015-Jul-24 22:33N 36°43' E 000°29'1717.1
2015-Jul-24 21:33N 36°40' E 000°08'1716.9
2015-Jul-24 20:33N 36°38' W 000°13'1816.8
2015-Jul-24 19:27N 36°35' W 000°36'1516.6
2015-Jul-24 18:33N 36°32' W 000°54'1716.6
2015-Jul-24 17:33N 36°29' W 001°14'1716.8
2015-Jul-24 16:34N 36°27' W 001°35'1716.6
2015-Jul-24 15:34N 36°24' W 001°55'1816.8
2015-Jul-24 14:29N 36°21' W 002°17'1617.0
2015-Jul-24 13:33N 36°18' W 002°37'2516.4
2015-Jul-24 12:03N 36°15' W 003°07'1316.5
2015-Jul-24 11:15N 36°13' W 003°23'  

Dump ship's entire track history